sensor_id;sensor_type;location;lat;lon;timestamp;P1;durP1;ratioP1;P2;durP2;ratioP2
25449;SDS011;13371;52.080;5.624;2023-08-06T00:02:23;7.47;;;4.20;;
25449;SDS011;13371;52.080;5.624;2023-08-06T00:04:48;8.20;;;4.78;;
25449;SDS011;13371;52.080;5.624;2023-08-06T00:07:14;9.20;;;4.88;;
25449;SDS011;13371;52.080;5.624;2023-08-06T00:09:39;9.45;;;4.13;;
25449;SDS011;13371;52.080;5.624;2023-08-06T00:12:05;7.75;;;5.25;;
25449;SDS011;13371;52.080;5.624;2023-08-06T00:14:31;8.43;;;4.90;;
25449;SDS011;13371;52.080;5.624;2023-08-06T00:16:56;14.88;;;5.22;;
25449;SDS011;13371;52.080;5.624;2023-08-06T00:19:22;8.13;;;4.90;;
25449;SDS011;13371;52.080;5.624;2023-08-06T00:21:47;6.88;;;4.95;;
25449;SDS011;13371;52.080;5.624;2023-08-06T00:24:13;13.18;;;6.13;;
25449;SDS011;13371;52.080;5.624;2023-08-06T00:26:39;8.82;;;5.72;;
25449;SDS011;13371;52.080;5.624;2023-08-06T00:29:04;8.95;;;5.35;;
25449;SDS011;13371;52.080;5.624;2023-08-06T00:31:30;14.32;;;6.25;;
25449;SDS011;13371;52.080;5.624;2023-08-06T00:33:55;10.25;;;5.82;;
25449;SDS011;13371;52.080;5.624;2023-08-06T00:36:21;10.43;;;5.75;;
25449;SDS011;13371;52.080;5.624;2023-08-06T00:38:46;7.57;;;5.60;;
25449;SDS011;13371;52.080;5.624;2023-08-06T00:41:12;8.43;;;5.80;;
25449;SDS011;13371;52.080;5.624;2023-08-06T00:43:38;7.55;;;5.57;;
25449;SDS011;13371;52.080;5.624;2023-08-06T00:46:03;8.77;;;6.03;;
25449;SDS011;13371;52.080;5.624;2023-08-06T00:48:29;8.45;;;5.85;;
25449;SDS011;13371;52.080;5.624;2023-08-06T00:50:54;7.22;;;5.18;;
25449;SDS011;13371;52.080;5.624;2023-08-06T00:53:20;9.93;;;6.15;;
25449;SDS011;13371;52.080;5.624;2023-08-06T00:55:46;11.23;;;6.43;;
25449;SDS011;13371;52.080;5.624;2023-08-06T00:58:12;8.07;;;5.60;;
25449;SDS011;13371;52.080;5.624;2023-08-06T01:00:40;9.98;;;6.03;;
25449;SDS011;13371;52.080;5.624;2023-08-06T01:03:06;7.80;;;5.28;;
25449;SDS011;13371;52.080;5.624;2023-08-06T01:05:31;10.73;;;5.70;;
25449;SDS011;13371;52.080;5.624;2023-08-06T01:10:40;10.02;;;5.95;;
25449;SDS011;13371;52.080;5.624;2023-08-06T01:16:06;9.85;;;6.13;;
25449;SDS011;13371;52.080;5.624;2023-08-06T01:18:32;13.15;;;5.88;;
25449;SDS011;13371;52.080;5.624;2023-08-06T01:20:58;11.07;;;6.50;;
25449;SDS011;13371;52.080;5.624;2023-08-06T01:23:23;11.98;;;6.45;;
25449;SDS011;13371;52.080;5.624;2023-08-06T01:25:58;10.10;;;6.63;;
25449;SDS011;13371;52.080;5.624;2023-08-06T01:31:33;11.30;;;7.65;;
25449;SDS011;13371;52.080;5.624;2023-08-06T01:34:02;13.07;;;8.30;;
25449;SDS011;13371;52.080;5.624;2023-08-06T01:36:31;15.38;;;7.70;;
25449;SDS011;13371;52.080;5.624;2023-08-06T01:38:57;12.05;;;6.80;;
25449;SDS011;13371;52.080;5.624;2023-08-06T01:41:23;10.38;;;7.13;;
25449;SDS011;13371;52.080;5.624;2023-08-06T01:43:48;11.60;;;6.55;;
25449;SDS011;13371;52.080;5.624;2023-08-06T01:46:14;12.90;;;7.53;;
25449;SDS011;13371;52.080;5.624;2023-08-06T01:48:40;12.35;;;7.45;;
25449;SDS011;13371;52.080;5.624;2023-08-06T01:51:05;21.85;;;8.40;;
25449;SDS011;13371;52.080;5.624;2023-08-06T01:53:31;12.77;;;8.50;;
25449;SDS011;13371;52.080;5.624;2023-08-06T01:55:57;12.63;;;8.55;;
25449;SDS011;13371;52.080;5.624;2023-08-06T01:58:23;15.40;;;9.27;;
25449;SDS011;13371;52.080;5.624;2023-08-06T02:00:49;12.48;;;9.23;;
25449;SDS011;13371;52.080;5.624;2023-08-06T02:03:15;14.23;;;8.38;;
25449;SDS011;13371;52.080;5.624;2023-08-06T02:05:40;11.90;;;8.07;;
25449;SDS011;13371;52.080;5.624;2023-08-06T02:08:06;11.07;;;8.10;;
25449;SDS011;13371;52.080;5.624;2023-08-06T02:10:31;14.73;;;8.23;;
25449;SDS011;13371;52.080;5.624;2023-08-06T02:12:57;11.73;;;7.90;;
25449;SDS011;13371;52.080;5.624;2023-08-06T02:15:23;11.85;;;7.35;;
25449;SDS011;13371;52.080;5.624;2023-08-06T02:17:48;17.92;;;8.20;;
25449;SDS011;13371;52.080;5.624;2023-08-06T02:20:14;10.85;;;7.43;;
25449;SDS011;13371;52.080;5.624;2023-08-06T02:22:40;13.52;;;7.57;;
25449;SDS011;13371;52.080;5.624;2023-08-06T02:25:05;11.98;;;6.80;;
25449;SDS011;13371;52.080;5.624;2023-08-06T02:27:31;13.07;;;7.03;;
25449;SDS011;13371;52.080;5.624;2023-08-06T02:29:57;8.70;;;5.70;;
25449;SDS011;13371;52.080;5.624;2023-08-06T02:32:22;7.93;;;5.15;;
25449;SDS011;13371;52.080;5.624;2023-08-06T02:34:49;8.65;;;5.20;;
25449;SDS011;13371;52.080;5.624;2023-08-06T02:37:14;6.45;;;4.68;;
25449;SDS011;13371;52.080;5.624;2023-08-06T02:39:40;6.47;;;4.43;;
25449;SDS011;13371;52.080;5.624;2023-08-06T02:42:06;6.40;;;4.45;;
25449;SDS011;13371;52.080;5.624;2023-08-06T02:44:32;6.05;;;4.30;;
25449;SDS011;13371;52.080;5.624;2023-08-06T02:46:58;7.00;;;4.28;;
25449;SDS011;13371;52.080;5.624;2023-08-06T02:49:24;6.78;;;4.15;;
25449;SDS011;13371;52.080;5.624;2023-08-06T02:51:50;6.60;;;4.60;;
25449;SDS011;13371;52.080;5.624;2023-08-06T02:54:16;7.03;;;4.85;;
25449;SDS011;13371;52.080;5.624;2023-08-06T02:56:43;7.43;;;5.30;;
25449;SDS011;13371;52.080;5.624;2023-08-06T02:59:10;8.32;;;5.68;;
25449;SDS011;13371;52.080;5.624;2023-08-06T03:01:36;7.38;;;5.25;;
25449;SDS011;13371;52.080;5.624;2023-08-06T03:04:01;11.20;;;6.47;;
25449;SDS011;13371;52.080;5.624;2023-08-06T03:06:27;8.25;;;5.95;;
25449;SDS011;13371;52.080;5.624;2023-08-06T03:08:53;9.25;;;6.38;;
25449;SDS011;13371;52.080;5.624;2023-08-06T03:11:19;9.10;;;6.88;;
25449;SDS011;13371;52.080;5.624;2023-08-06T03:13:44;9.60;;;6.45;;
25449;SDS011;13371;52.080;5.624;2023-08-06T03:16:10;10.82;;;6.70;;
25449;SDS011;13371;52.080;5.624;2023-08-06T03:18:38;11.70;;;7.10;;
25449;SDS011;13371;52.080;5.624;2023-08-06T03:21:04;11.00;;;7.95;;
25449;SDS011;13371;52.080;5.624;2023-08-06T03:23:30;11.38;;;7.53;;
25449;SDS011;13371;52.080;5.624;2023-08-06T03:25:56;16.70;;;8.80;;
25449;SDS011;13371;52.080;5.624;2023-08-06T03:28:21;13.55;;;8.35;;
25449;SDS011;13371;52.080;5.624;2023-08-06T03:30:47;13.40;;;8.15;;
25449;SDS011;13371;52.080;5.624;2023-08-06T03:33:13;12.70;;;8.35;;
25449;SDS011;13371;52.080;5.624;2023-08-06T03:35:39;13.48;;;8.57;;
25449;SDS011;13371;52.080;5.624;2023-08-06T03:38:05;13.35;;;8.77;;
25449;SDS011;13371;52.080;5.624;2023-08-06T03:40:30;11.32;;;8.95;;
25449;SDS011;13371;52.080;5.624;2023-08-06T03:42:56;10.80;;;8.25;;
25449;SDS011;13371;52.080;5.624;2023-08-06T03:45:21;12.65;;;8.73;;
25449;SDS011;13371;52.080;5.624;2023-08-06T03:47:47;14.95;;;9.40;;
25449;SDS011;13371;52.080;5.624;2023-08-06T03:50:13;11.73;;;8.52;;
25449;SDS011;13371;52.080;5.624;2023-08-06T03:52:38;13.60;;;8.60;;
25449;SDS011;13371;52.080;5.624;2023-08-06T03:55:04;11.85;;;8.32;;
25449;SDS011;13371;52.080;5.624;2023-08-06T03:57:30;13.23;;;8.57;;
25449;SDS011;13371;52.080;5.624;2023-08-06T03:59:55;11.35;;;7.78;;
25449;SDS011;13371;52.080;5.624;2023-08-06T04:02:21;10.80;;;7.45;;
25449;SDS011;13371;52.080;5.624;2023-08-06T04:04:47;9.98;;;7.18;;
25449;SDS011;13371;52.080;5.624;2023-08-06T04:07:12;10.40;;;7.38;;
25449;SDS011;13371;52.080;5.624;2023-08-06T04:09:52;9.95;;;7.65;;
25449;SDS011;13371;52.080;5.624;2023-08-06T04:12:18;9.80;;;7.30;;
25449;SDS011;13371;52.080;5.624;2023-08-06T04:14:44;12.88;;;8.45;;
25449;SDS011;13371;52.080;5.624;2023-08-06T04:17:09;15.07;;;9.68;;
25449;SDS011;13371;52.080;5.624;2023-08-06T04:19:35;13.80;;;9.25;;
25449;SDS011;13371;52.080;5.624;2023-08-06T04:22:01;14.13;;;9.93;;
25449;SDS011;13371;52.080;5.624;2023-08-06T04:24:26;15.00;;;10.77;;
25449;SDS011;13371;52.080;5.624;2023-08-06T04:26:52;15.40;;;10.00;;
25449;SDS011;13371;52.080;5.624;2023-08-06T04:29:17;16.05;;;10.45;;
25449;SDS011;13371;52.080;5.624;2023-08-06T04:31:43;17.33;;;10.55;;
25449;SDS011;13371;52.080;5.624;2023-08-06T04:34:08;15.15;;;10.35;;
25449;SDS011;13371;52.080;5.624;2023-08-06T04:36:34;15.40;;;10.90;;
25449;SDS011;13371;52.080;5.624;2023-08-06T04:38:59;16.30;;;11.13;;
25449;SDS011;13371;52.080;5.624;2023-08-06T04:41:28;19.00;;;11.65;;
25449;SDS011;13371;52.080;5.624;2023-08-06T04:43:53;16.13;;;11.45;;
25449;SDS011;13371;52.080;5.624;2023-08-06T04:46:19;15.13;;;11.02;;
25449;SDS011;13371;52.080;5.624;2023-08-06T04:48:44;17.55;;;11.50;;
25449;SDS011;13371;52.080;5.624;2023-08-06T04:51:10;23.58;;;13.02;;
25449;SDS011;13371;52.080;5.624;2023-08-06T04:53:35;19.55;;;11.73;;
25449;SDS011;13371;52.080;5.624;2023-08-06T04:56:01;17.75;;;12.30;;
25449;SDS011;13371;52.080;5.624;2023-08-06T04:58:27;20.88;;;12.85;;
25449;SDS011;13371;52.080;5.624;2023-08-06T05:00:52;23.92;;;12.30;;
25449;SDS011;13371;52.080;5.624;2023-08-06T05:03:19;19.92;;;13.25;;
25449;SDS011;13371;52.080;5.624;2023-08-06T05:05:45;20.08;;;12.70;;
25449;SDS011;13371;52.080;5.624;2023-08-06T05:08:15;20.70;;;13.25;;
25449;SDS011;13371;52.080;5.624;2023-08-06T05:10:42;20.63;;;13.52;;
25449;SDS011;13371;52.080;5.624;2023-08-06T05:13:09;20.55;;;12.57;;
25449;SDS011;13371;52.080;5.624;2023-08-06T05:15:34;19.40;;;12.57;;
25449;SDS011;13371;52.080;5.624;2023-08-06T05:18:00;19.00;;;13.13;;
25449;SDS011;13371;52.080;5.624;2023-08-06T05:20:26;18.67;;;12.27;;
25449;SDS011;13371;52.080;5.624;2023-08-06T05:22:52;16.83;;;11.40;;
25449;SDS011;13371;52.080;5.624;2023-08-06T05:25:18;18.52;;;12.98;;
25449;SDS011;13371;52.080;5.624;2023-08-06T05:27:43;23.02;;;12.68;;
25449;SDS011;13371;52.080;5.624;2023-08-06T05:30:09;21.00;;;13.15;;
25449;SDS011;13371;52.080;5.624;2023-08-06T05:32:35;17.70;;;11.90;;
25449;SDS011;13371;52.080;5.624;2023-08-06T05:35:01;21.65;;;13.38;;
25449;SDS011;13371;52.080;5.624;2023-08-06T05:37:26;17.23;;;12.35;;
25449;SDS011;13371;52.080;5.624;2023-08-06T05:39:52;20.83;;;13.43;;
25449;SDS011;13371;52.080;5.624;2023-08-06T05:42:18;19.52;;;13.35;;
25449;SDS011;13371;52.080;5.624;2023-08-06T05:44:43;20.38;;;12.93;;
25449;SDS011;13371;52.080;5.624;2023-08-06T05:47:09;21.67;;;12.55;;
25449;SDS011;13371;52.080;5.624;2023-08-06T05:49:34;19.13;;;13.32;;
25449;SDS011;13371;52.080;5.624;2023-08-06T05:52:00;18.20;;;12.65;;
25449;SDS011;13371;52.080;5.624;2023-08-06T05:54:26;18.05;;;12.80;;
25449;SDS011;13371;52.080;5.624;2023-08-06T05:56:51;19.42;;;13.48;;
25449;SDS011;13371;52.080;5.624;2023-08-06T05:59:17;19.23;;;13.13;;
25449;SDS011;13371;52.080;5.624;2023-08-06T06:01:42;18.83;;;13.15;;
25449;SDS011;13371;52.080;5.624;2023-08-06T06:04:08;21.67;;;13.80;;
25449;SDS011;13371;52.080;5.624;2023-08-06T06:06:34;22.45;;;13.63;;
25449;SDS011;13371;52.080;5.624;2023-08-06T06:08:59;21.30;;;13.93;;
25449;SDS011;13371;52.080;5.624;2023-08-06T06:11:25;20.23;;;13.35;;
25449;SDS011;13371;52.080;5.624;2023-08-06T06:13:51;19.80;;;12.98;;
25449;SDS011;13371;52.080;5.624;2023-08-06T06:16:17;21.08;;;13.00;;
25449;SDS011;13371;52.080;5.624;2023-08-06T06:18:43;20.02;;;12.85;;
25449;SDS011;13371;52.080;5.624;2023-08-06T06:21:09;20.15;;;12.90;;
25449;SDS011;13371;52.080;5.624;2023-08-06T06:23:35;21.48;;;14.52;;
25449;SDS011;13371;52.080;5.624;2023-08-06T06:26:00;19.08;;;13.32;;
25449;SDS011;13371;52.080;5.624;2023-08-06T06:28:26;21.10;;;13.90;;
25449;SDS011;13371;52.080;5.624;2023-08-06T06:30:51;22.58;;;14.48;;
25449;SDS011;13371;52.080;5.624;2023-08-06T06:33:17;18.08;;;11.73;;
25449;SDS011;13371;52.080;5.624;2023-08-06T06:35:43;21.00;;;13.50;;
25449;SDS011;13371;52.080;5.624;2023-08-06T06:38:08;23.10;;;13.82;;
25449;SDS011;13371;52.080;5.624;2023-08-06T06:40:34;17.83;;;12.07;;
25449;SDS011;13371;52.080;5.624;2023-08-06T06:42:59;19.15;;;12.43;;
25449;SDS011;13371;52.080;5.624;2023-08-06T06:45:25;20.75;;;12.27;;
25449;SDS011;13371;52.080;5.624;2023-08-06T06:47:50;17.08;;;12.00;;
25449;SDS011;13371;52.080;5.624;2023-08-06T06:50:16;16.35;;;11.27;;
25449;SDS011;13371;52.080;5.624;2023-08-06T06:52:42;16.75;;;11.77;;
25449;SDS011;13371;52.080;5.624;2023-08-06T06:55:07;18.42;;;12.23;;
25449;SDS011;13371;52.080;5.624;2023-08-06T06:57:33;16.45;;;11.98;;
25449;SDS011;13371;52.080;5.624;2023-08-06T06:59:58;17.85;;;11.85;;
25449;SDS011;13371;52.080;5.624;2023-08-06T07:02:24;22.83;;;12.40;;
25449;SDS011;13371;52.080;5.624;2023-08-06T07:04:50;19.75;;;12.48;;
25449;SDS011;13371;52.080;5.624;2023-08-06T07:07:15;19.08;;;12.82;;
25449;SDS011;13371;52.080;5.624;2023-08-06T07:09:41;16.75;;;12.18;;
25449;SDS011;13371;52.080;5.624;2023-08-06T07:12:07;17.98;;;11.30;;
25449;SDS011;13371;52.080;5.624;2023-08-06T07:14:33;20.38;;;13.20;;
25449;SDS011;13371;52.080;5.624;2023-08-06T07:16:58;21.83;;;12.30;;
25449;SDS011;13371;52.080;5.624;2023-08-06T07:19:24;16.52;;;11.40;;
25449;SDS011;13371;52.080;5.624;2023-08-06T07:21:49;16.75;;;11.55;;
25449;SDS011;13371;52.080;5.624;2023-08-06T07:24:15;16.63;;;11.75;;
25449;SDS011;13371;52.080;5.624;2023-08-06T07:26:41;14.55;;;10.77;;
25449;SDS011;13371;52.080;5.624;2023-08-06T07:29:06;14.70;;;9.90;;
25449;SDS011;13371;52.080;5.624;2023-08-06T07:31:32;14.80;;;9.77;;
25449;SDS011;13371;52.080;5.624;2023-08-06T07:33:58;14.32;;;9.50;;
25449;SDS011;13371;52.080;5.624;2023-08-06T07:36:24;13.15;;;9.18;;
25449;SDS011;13371;52.080;5.624;2023-08-06T07:38:49;20.65;;;8.70;;
25449;SDS011;13371;52.080;5.624;2023-08-06T07:41:20;11.18;;;7.70;;
25449;SDS011;13371;52.080;5.624;2023-08-06T07:43:46;11.63;;;8.32;;
25449;SDS011;13371;52.080;5.624;2023-08-06T07:46:12;14.65;;;6.90;;
25449;SDS011;13371;52.080;5.624;2023-08-06T07:48:38;10.57;;;6.78;;
25449;SDS011;13371;52.080;5.624;2023-08-06T07:51:04;8.25;;;6.22;;
25449;SDS011;13371;52.080;5.624;2023-08-06T07:53:29;9.32;;;6.65;;
25449;SDS011;13371;52.080;5.624;2023-08-06T07:55:55;10.60;;;6.95;;
25449;SDS011;13371;52.080;5.624;2023-08-06T07:58:22;10.18;;;6.78;;
25449;SDS011;13371;52.080;5.624;2023-08-06T08:00:49;10.20;;;7.22;;
25449;SDS011;13371;52.080;5.624;2023-08-06T08:03:15;9.98;;;6.78;;
25449;SDS011;13371;52.080;5.624;2023-08-06T08:05:42;12.85;;;7.40;;
25449;SDS011;13371;52.080;5.624;2023-08-06T08:08:08;12.05;;;7.15;;
25449;SDS011;13371;52.080;5.624;2023-08-06T08:10:34;12.55;;;7.45;;
25449;SDS011;13371;52.080;5.624;2023-08-06T08:13:00;10.23;;;7.80;;
25449;SDS011;13371;52.080;5.624;2023-08-06T08:15:30;12.35;;;7.97;;
25449;SDS011;13371;52.080;5.624;2023-08-06T08:17:56;13.35;;;8.27;;
25449;SDS011;13371;52.080;5.624;2023-08-06T08:20:22;12.60;;;8.65;;
25449;SDS011;13371;52.080;5.624;2023-08-06T08:22:47;16.48;;;9.45;;
25449;SDS011;13371;52.080;5.624;2023-08-06T08:25:13;17.50;;;10.65;;
25449;SDS011;13371;52.080;5.624;2023-08-06T08:27:40;15.77;;;10.85;;
25449;SDS011;13371;52.080;5.624;2023-08-06T08:30:06;14.68;;;9.55;;
25449;SDS011;13371;52.080;5.624;2023-08-06T08:32:32;16.90;;;10.90;;
25449;SDS011;13371;52.080;5.624;2023-08-06T08:34:57;17.63;;;10.88;;
25449;SDS011;13371;52.080;5.624;2023-08-06T08:37:23;18.42;;;11.05;;
25449;SDS011;13371;52.080;5.624;2023-08-06T08:39:49;17.15;;;11.13;;
25449;SDS011;13371;52.080;5.624;2023-08-06T08:42:15;17.20;;;12.82;;
25449;SDS011;13371;52.080;5.624;2023-08-06T08:44:44;17.05;;;11.85;;
25449;SDS011;13371;52.080;5.624;2023-08-06T08:47:10;18.10;;;13.57;;
25449;SDS011;13371;52.080;5.624;2023-08-06T08:49:36;18.10;;;12.82;;
25449;SDS011;13371;52.080;5.624;2023-08-06T08:52:03;23.73;;;16.17;;
25449;SDS011;13371;52.080;5.624;2023-08-06T08:54:38;26.30;;;15.00;;
25449;SDS011;13371;52.080;5.624;2023-08-06T08:57:04;25.83;;;16.80;;
25449;SDS011;13371;52.080;5.624;2023-08-06T08:59:30;25.17;;;15.73;;
25449;SDS011;13371;52.080;5.624;2023-08-06T09:01:58;23.20;;;16.67;;
25449;SDS011;13371;52.080;5.624;2023-08-06T09:04:26;21.15;;;14.98;;
25449;SDS011;13371;52.080;5.624;2023-08-06T09:06:56;21.48;;;14.85;;
25449;SDS011;13371;52.080;5.624;2023-08-06T09:09:28;24.38;;;16.63;;
25449;SDS011;13371;52.080;5.624;2023-08-06T09:12:00;21.70;;;16.50;;
25449;SDS011;13371;52.080;5.624;2023-08-06T09:14:27;27.42;;;17.60;;
25449;SDS011;13371;52.080;5.624;2023-08-06T09:16:53;27.98;;;18.63;;
25449;SDS011;13371;52.080;5.624;2023-08-06T09:19:19;28.52;;;18.00;;
25449;SDS011;13371;52.080;5.624;2023-08-06T09:21:45;26.67;;;17.98;;
25449;SDS011;13371;52.080;5.624;2023-08-06T09:24:14;34.10;;;19.20;;
25449;SDS011;13371;52.080;5.624;2023-08-06T09:26:41;28.20;;;18.55;;
25449;SDS011;13371;52.080;5.624;2023-08-06T09:29:08;28.48;;;18.25;;
25449;SDS011;13371;52.080;5.624;2023-08-06T09:31:43;23.63;;;16.35;;
25449;SDS011;13371;52.080;5.624;2023-08-06T09:34:20;7.70;;;4.85;;
25449;SDS011;13371;52.080;5.624;2023-08-06T09:36:51;5.00;;;3.20;;
25449;SDS011;13371;52.080;5.624;2023-08-06T09:39:19;3.60;;;2.80;;
25449;SDS011;13371;52.080;5.624;2023-08-06T09:41:46;4.47;;;2.38;;
25449;SDS011;13371;52.080;5.624;2023-08-06T09:44:16;3.05;;;2.30;;
25449;SDS011;13371;52.080;5.624;2023-08-06T09:46:50;4.50;;;2.22;;
25449;SDS011;13371;52.080;5.624;2023-08-06T09:49:18;4.97;;;2.47;;
25449;SDS011;13371;52.080;5.624;2023-08-06T09:51:45;4.80;;;2.30;;
25449;SDS011;13371;52.080;5.624;2023-08-06T09:54:15;3.13;;;2.00;;
25449;SDS011;13371;52.080;5.624;2023-08-06T09:56:42;6.82;;;2.25;;
25449;SDS011;13371;52.080;5.624;2023-08-06T09:59:08;4.45;;;2.03;;
25449;SDS011;13371;52.080;5.624;2023-08-06T10:01:35;5.20;;;1.88;;
25449;SDS011;13371;52.080;5.624;2023-08-06T10:04:02;4.00;;;1.95;;
25449;SDS011;13371;52.080;5.624;2023-08-06T10:06:31;2.38;;;1.63;;
25449;SDS011;13371;52.080;5.624;2023-08-06T10:08:59;4.05;;;1.98;;
25449;SDS011;13371;52.080;5.624;2023-08-06T10:11:25;3.25;;;1.80;;
25449;SDS011;13371;52.080;5.624;2023-08-06T10:13:55;4.22;;;2.47;;
25449;SDS011;13371;52.080;5.624;2023-08-06T10:16:34;5.25;;;3.15;;
25449;SDS011;13371;52.080;5.624;2023-08-06T10:19:01;5.50;;;3.25;;
25449;SDS011;13371;52.080;5.624;2023-08-06T10:21:30;5.47;;;3.45;;
25449;SDS011;13371;52.080;5.624;2023-08-06T10:23:56;6.63;;;3.78;;
25449;SDS011;13371;52.080;5.624;2023-08-06T10:26:26;5.25;;;3.33;;
25449;SDS011;13371;52.080;5.624;2023-08-06T10:28:52;5.40;;;3.80;;
25449;SDS011;13371;52.080;5.624;2023-08-06T10:31:18;4.85;;;3.53;;
25449;SDS011;13371;52.080;5.624;2023-08-06T10:33:44;11.93;;;3.97;;
25449;SDS011;13371;52.080;5.624;2023-08-06T10:36:12;6.40;;;4.20;;
25449;SDS011;13371;52.080;5.624;2023-08-06T10:38:45;6.30;;;4.35;;
25449;SDS011;13371;52.080;5.624;2023-08-06T10:41:16;8.27;;;4.32;;
25449;SDS011;13371;52.080;5.624;2023-08-06T10:43:52;7.00;;;3.60;;
25449;SDS011;13371;52.080;5.624;2023-08-06T10:46:29;5.93;;;4.18;;
25449;SDS011;13371;52.080;5.624;2023-08-06T10:48:55;5.65;;;4.03;;
25449;SDS011;13371;52.080;5.624;2023-08-06T10:51:21;5.80;;;3.97;;
25449;SDS011;13371;52.080;5.624;2023-08-06T10:53:50;8.25;;;4.85;;
25449;SDS011;13371;52.080;5.624;2023-08-06T10:56:16;9.20;;;5.13;;
25449;SDS011;13371;52.080;5.624;2023-08-06T10:58:49;7.72;;;4.60;;
25449;SDS011;13371;52.080;5.624;2023-08-06T11:01:16;8.25;;;5.10;;
25449;SDS011;13371;52.080;5.624;2023-08-06T11:03:42;11.13;;;5.75;;
25449;SDS011;13371;52.080;5.624;2023-08-06T11:06:10;11.13;;;5.22;;
25449;SDS011;13371;52.080;5.624;2023-08-06T11:08:37;6.93;;;4.97;;
25449;SDS011;13371;52.080;5.624;2023-08-06T11:11:10;8.32;;;5.43;;
25449;SDS011;13371;52.080;5.624;2023-08-06T11:13:38;11.80;;;6.85;;
25449;SDS011;13371;52.080;5.624;2023-08-06T11:16:04;10.57;;;5.97;;
25449;SDS011;13371;52.080;5.624;2023-08-06T11:18:31;11.25;;;6.80;;
25449;SDS011;13371;52.080;5.624;2023-08-06T11:21:01;10.50;;;6.88;;
25449;SDS011;13371;52.080;5.624;2023-08-06T11:23:27;11.25;;;6.55;;
25449;SDS011;13371;52.080;5.624;2023-08-06T11:25:54;10.55;;;6.55;;
25449;SDS011;13371;52.080;5.624;2023-08-06T11:28:23;11.95;;;6.72;;
25449;SDS011;13371;52.080;5.624;2023-08-06T11:30:49;10.98;;;6.45;;
25449;SDS011;13371;52.080;5.624;2023-08-06T11:33:21;11.50;;;6.50;;
25449;SDS011;13371;52.080;5.624;2023-08-06T11:35:50;9.07;;;5.15;;
25449;SDS011;13371;52.080;5.624;2023-08-06T11:38:16;9.82;;;5.78;;
25449;SDS011;13371;52.080;5.624;2023-08-06T11:40:43;10.40;;;5.63;;
25449;SDS011;13371;52.080;5.624;2023-08-06T11:43:10;8.77;;;5.78;;
25449;SDS011;13371;52.080;5.624;2023-08-06T11:45:37;11.95;;;6.28;;
25449;SDS011;13371;52.080;5.624;2023-08-06T11:48:02;12.48;;;6.25;;
25449;SDS011;13371;52.080;5.624;2023-08-06T11:50:29;11.75;;;5.68;;
25449;SDS011;13371;52.080;5.624;2023-08-06T11:52:59;11.90;;;6.57;;
25449;SDS011;13371;52.080;5.624;2023-08-06T11:55:26;11.82;;;6.35;;
25449;SDS011;13371;52.080;5.624;2023-08-06T11:57:54;11.77;;;5.97;;
25449;SDS011;13371;52.080;5.624;2023-08-06T12:00:20;9.82;;;6.15;;
25449;SDS011;13371;52.080;5.624;2023-08-06T12:02:49;12.18;;;5.63;;
25449;SDS011;13371;52.080;5.624;2023-08-06T12:05:22;11.50;;;5.72;;
25449;SDS011;13371;52.080;5.624;2023-08-06T12:10:16;12.23;;;5.80;;
25449;SDS011;13371;52.080;5.624;2023-08-06T12:12:44;14.18;;;5.68;;
25449;SDS011;13371;52.080;5.624;2023-08-06T12:15:10;11.02;;;5.03;;
25449;SDS011;13371;52.080;5.624;2023-08-06T12:17:36;11.60;;;4.95;;
25449;SDS011;13371;52.080;5.624;2023-08-06T12:20:03;8.70;;;4.72;;
25449;SDS011;13371;52.080;5.624;2023-08-06T12:22:29;6.15;;;4.07;;
25449;SDS011;13371;52.080;5.624;2023-08-06T12:25:00;8.18;;;4.85;;
25449;SDS011;13371;52.080;5.624;2023-08-06T12:27:27;7.82;;;4.45;;
25449;SDS011;13371;52.080;5.624;2023-08-06T12:29:53;9.20;;;5.00;;
25449;SDS011;13371;52.080;5.624;2023-08-06T12:32:19;9.45;;;4.80;;
25449;SDS011;13371;52.080;5.624;2023-08-06T12:34:44;8.43;;;4.85;;
25449;SDS011;13371;52.080;5.624;2023-08-06T12:37:10;8.73;;;5.35;;
25449;SDS011;13371;52.080;5.624;2023-08-06T12:39:36;8.20;;;4.75;;
25449;SDS011;13371;52.080;5.624;2023-08-06T12:42:02;8.95;;;5.10;;
25449;SDS011;13371;52.080;5.624;2023-08-06T12:44:40;11.40;;;4.60;;
25449;SDS011;13371;52.080;5.624;2023-08-06T12:47:11;6.95;;;4.40;;
25449;SDS011;13371;52.080;5.624;2023-08-06T12:49:37;11.35;;;4.80;;
25449;SDS011;13371;52.080;5.624;2023-08-06T12:52:02;6.47;;;4.03;;
25449;SDS011;13371;52.080;5.624;2023-08-06T12:54:31;7.88;;;4.38;;
25449;SDS011;13371;52.080;5.624;2023-08-06T12:57:01;7.68;;;4.72;;
25449;SDS011;13371;52.080;5.624;2023-08-06T12:59:28;6.30;;;3.85;;
25449;SDS011;13371;52.080;5.624;2023-08-06T13:01:53;6.22;;;4.25;;
25449;SDS011;13371;52.080;5.624;2023-08-06T13:04:19;10.38;;;4.28;;
25449;SDS011;13371;52.080;5.624;2023-08-06T13:06:44;8.80;;;4.40;;
25449;SDS011;13371;52.080;5.624;2023-08-06T13:09:10;11.52;;;4.57;;
25449;SDS011;13371;52.080;5.624;2023-08-06T13:11:36;7.95;;;4.43;;
25449;SDS011;13371;52.080;5.624;2023-08-06T13:14:09;7.82;;;3.95;;
25449;SDS011;13371;52.080;5.624;2023-08-06T13:16:37;6.80;;;4.53;;
25449;SDS011;13371;52.080;5.624;2023-08-06T13:19:03;8.93;;;5.43;;
25449;SDS011;13371;52.080;5.624;2023-08-06T13:21:33;8.40;;;5.18;;
25449;SDS011;13371;52.080;5.624;2023-08-06T13:24:03;8.35;;;5.32;;
25449;SDS011;13371;52.080;5.624;2023-08-06T13:26:29;7.65;;;4.32;;
25449;SDS011;13371;52.080;5.624;2023-08-06T13:28:58;8.10;;;4.40;;
25449;SDS011;13371;52.080;5.624;2023-08-06T13:31:25;9.48;;;4.53;;
25449;SDS011;13371;52.080;5.624;2023-08-06T13:33:52;9.02;;;5.38;;
25449;SDS011;13371;52.080;5.624;2023-08-06T13:36:21;9.15;;;4.70;;
25449;SDS011;13371;52.080;5.624;2023-08-06T13:38:47;8.98;;;5.47;;
25449;SDS011;13371;52.080;5.624;2023-08-06T13:41:13;13.75;;;6.20;;
25449;SDS011;13371;52.080;5.624;2023-08-06T13:43:38;8.10;;;5.10;;
25449;SDS011;13371;52.080;5.624;2023-08-06T13:46:04;10.80;;;5.55;;
25449;SDS011;13371;52.080;5.624;2023-08-06T13:48:30;9.52;;;5.45;;
25449;SDS011;13371;52.080;5.624;2023-08-06T13:50:56;7.35;;;5.00;;
25449;SDS011;13371;52.080;5.624;2023-08-06T13:53:21;8.13;;;5.40;;
25449;SDS011;13371;52.080;5.624;2023-08-06T13:55:47;9.45;;;5.13;;
25449;SDS011;13371;52.080;5.624;2023-08-06T13:58:13;9.15;;;5.00;;
25449;SDS011;13371;52.080;5.624;2023-08-06T14:00:38;8.13;;;4.63;;
25449;SDS011;13371;52.080;5.624;2023-08-06T14:03:04;9.68;;;4.90;;
25449;SDS011;13371;52.080;5.624;2023-08-06T14:05:30;9.35;;;4.90;;
25449;SDS011;13371;52.080;5.624;2023-08-06T14:07:55;8.18;;;5.28;;
25449;SDS011;13371;52.080;5.624;2023-08-06T14:10:21;8.93;;;4.60;;
25449;SDS011;13371;52.080;5.624;2023-08-06T14:12:46;11.32;;;5.50;;
25449;SDS011;13371;52.080;5.624;2023-08-06T14:15:12;7.45;;;4.72;;
25449;SDS011;13371;52.080;5.624;2023-08-06T14:17:38;7.95;;;4.70;;
25449;SDS011;13371;52.080;5.624;2023-08-06T14:20:05;8.13;;;4.97;;
25449;SDS011;13371;52.080;5.624;2023-08-06T14:22:33;7.55;;;4.93;;
25449;SDS011;13371;52.080;5.624;2023-08-06T14:24:58;14.13;;;5.25;;
25449;SDS011;13371;52.080;5.624;2023-08-06T14:27:24;17.02;;;8.85;;
25449;SDS011;13371;52.080;5.624;2023-08-06T14:29:50;17.90;;;9.75;;
25449;SDS011;13371;52.080;5.624;2023-08-06T14:32:16;13.02;;;6.00;;
25449;SDS011;13371;52.080;5.624;2023-08-06T14:34:43;9.48;;;5.85;;
25449;SDS011;13371;52.080;5.624;2023-08-06T14:37:09;10.68;;;5.40;;
25449;SDS011;13371;52.080;5.624;2023-08-06T14:39:35;12.60;;;6.60;;
25449;SDS011;13371;52.080;5.624;2023-08-06T14:42:01;12.70;;;6.40;;
25449;SDS011;13371;52.080;5.624;2023-08-06T14:44:27;12.98;;;6.00;;